sensor_id;sensor_type;location;lat;lon;timestamp;P1;durP1;ratioP1;P2;durP2;ratioP2
54247;SDS011;40161;39.768;2.722;2023-08-24T00:01:26;10.40;;;6.22;;
54247;SDS011;40161;39.768;2.722;2023-08-24T00:03:52;8.45;;;5.85;;
54247;SDS011;40161;39.768;2.722;2023-08-24T00:06:18;7.75;;;6.05;;
54247;SDS011;40161;39.768;2.722;2023-08-24T00:08:43;7.57;;;5.68;;
54247;SDS011;40161;39.768;2.722;2023-08-24T00:11:09;8.30;;;5.57;;
54247;SDS011;40161;39.768;2.722;2023-08-24T00:13:40;8.05;;;5.85;;
54247;SDS011;40161;39.768;2.722;2023-08-24T00:16:07;7.55;;;5.75;;
54247;SDS011;40161;39.768;2.722;2023-08-24T00:18:32;6.22;;;4.93;;
54247;SDS011;40161;39.768;2.722;2023-08-24T00:20:58;8.23;;;5.53;;
54247;SDS011;40161;39.768;2.722;2023-08-24T00:23:24;8.07;;;5.53;;
54247;SDS011;40161;39.768;2.722;2023-08-24T00:25:50;8.23;;;5.75;;
54247;SDS011;40161;39.768;2.722;2023-08-24T00:28:16;8.27;;;5.30;;
54247;SDS011;40161;39.768;2.722;2023-08-24T00:30:41;7.13;;;6.05;;
54247;SDS011;40161;39.768;2.722;2023-08-24T00:33:07;6.95;;;5.68;;
54247;SDS011;40161;39.768;2.722;2023-08-24T00:35:32;8.20;;;5.47;;
54247;SDS011;40161;39.768;2.722;2023-08-24T00:37:58;7.72;;;5.50;;
54247;SDS011;40161;39.768;2.722;2023-08-24T00:40:23;7.35;;;5.55;;
54247;SDS011;40161;39.768;2.722;2023-08-24T00:42:50;6.88;;;6.00;;
54247;SDS011;40161;39.768;2.722;2023-08-24T00:45:15;10.18;;;6.35;;
54247;SDS011;40161;39.768;2.722;2023-08-24T00:47:44;7.53;;;5.75;;
54247;SDS011;40161;39.768;2.722;2023-08-24T00:50:13;7.90;;;5.60;;
54247;SDS011;40161;39.768;2.722;2023-08-24T00:52:41;8.35;;;5.80;;
54247;SDS011;40161;39.768;2.722;2023-08-24T00:55:08;7.97;;;5.63;;
54247;SDS011;40161;39.768;2.722;2023-08-24T00:57:35;7.63;;;5.65;;
54247;SDS011;40161;39.768;2.722;2023-08-24T01:00:02;6.43;;;5.80;;
54247;SDS011;40161;39.768;2.722;2023-08-24T01:02:39;7.45;;;5.90;;
54247;SDS011;40161;39.768;2.722;2023-08-24T01:05:05;9.98;;;5.68;;
54247;SDS011;40161;39.768;2.722;2023-08-24T01:07:32;8.65;;;6.07;;
54247;SDS011;40161;39.768;2.722;2023-08-24T01:10:02;7.13;;;5.20;;
54247;SDS011;40161;39.768;2.722;2023-08-24T01:20:14;6.50;;;5.55;;
54247;SDS011;40161;39.768;2.722;2023-08-24T01:22:44;7.30;;;5.32;;
54247;SDS011;40161;39.768;2.722;2023-08-24T01:25:37;6.63;;;5.43;;
54247;SDS011;40161;39.768;2.722;2023-08-24T01:28:07;6.85;;;6.03;;
54247;SDS011;40161;39.768;2.722;2023-08-24T01:30:34;7.78;;;5.70;;
54247;SDS011;40161;39.768;2.722;2023-08-24T01:33:03;7.30;;;5.50;;
54247;SDS011;40161;39.768;2.722;2023-08-24T01:35:36;7.57;;;5.63;;
54247;SDS011;40161;39.768;2.722;2023-08-24T01:38:03;10.35;;;5.68;;
54247;SDS011;40161;39.768;2.722;2023-08-24T01:40:37;7.35;;;5.63;;
54247;SDS011;40161;39.768;2.722;2023-08-24T01:43:10;9.50;;;6.10;;
54247;SDS011;40161;39.768;2.722;2023-08-24T01:45:39;9.52;;;6.70;;
54247;SDS011;40161;39.768;2.722;2023-08-24T01:48:07;8.65;;;6.10;;
54247;SDS011;40161;39.768;2.722;2023-08-24T01:50:35;10.68;;;5.85;;
54247;SDS011;40161;39.768;2.722;2023-08-24T01:53:01;7.22;;;5.63;;
54247;SDS011;40161;39.768;2.722;2023-08-24T01:55:28;9.35;;;8.32;;
54247;SDS011;40161;39.768;2.722;2023-08-24T01:57:54;8.40;;;6.35;;
54247;SDS011;40161;39.768;2.722;2023-08-24T02:00:21;8.32;;;5.53;;
54247;SDS011;40161;39.768;2.722;2023-08-24T02:02:47;7.63;;;5.72;;
54247;SDS011;40161;39.768;2.722;2023-08-24T02:05:13;7.15;;;5.75;;
54247;SDS011;40161;39.768;2.722;2023-08-24T02:07:38;7.95;;;5.28;;
54247;SDS011;40161;39.768;2.722;2023-08-24T02:10:05;6.93;;;5.53;;
54247;SDS011;40161;39.768;2.722;2023-08-24T02:12:31;7.57;;;5.70;;
54247;SDS011;40161;39.768;2.722;2023-08-24T02:14:57;7.68;;;5.55;;
54247;SDS011;40161;39.768;2.722;2023-08-24T02:17:22;7.53;;;5.97;;
54247;SDS011;40161;39.768;2.722;2023-08-24T02:19:48;7.53;;;5.95;;
54247;SDS011;40161;39.768;2.722;2023-08-24T02:22:14;7.72;;;5.63;;
54247;SDS011;40161;39.768;2.722;2023-08-24T02:24:40;6.72;;;5.60;;
54247;SDS011;40161;39.768;2.722;2023-08-24T02:27:05;7.30;;;5.35;;
54247;SDS011;40161;39.768;2.722;2023-08-24T02:29:31;7.60;;;5.50;;
54247;SDS011;40161;39.768;2.722;2023-08-24T02:31:56;7.22;;;5.25;;
54247;SDS011;40161;39.768;2.722;2023-08-24T02:34:22;6.32;;;5.15;;
54247;SDS011;40161;39.768;2.722;2023-08-24T02:36:47;7.45;;;5.78;;
54247;SDS011;40161;39.768;2.722;2023-08-24T02:39:13;8.95;;;5.85;;
54247;SDS011;40161;39.768;2.722;2023-08-24T02:41:38;8.05;;;5.28;;
54247;SDS011;40161;39.768;2.722;2023-08-24T02:44:04;7.30;;;5.75;;
54247;SDS011;40161;39.768;2.722;2023-08-24T02:46:29;8.52;;;5.63;;
54247;SDS011;40161;39.768;2.722;2023-08-24T02:48:55;7.60;;;5.57;;
54247;SDS011;40161;39.768;2.722;2023-08-24T02:51:21;8.75;;;6.05;;
54247;SDS011;40161;39.768;2.722;2023-08-24T02:53:48;7.70;;;5.78;;
54247;SDS011;40161;39.768;2.722;2023-08-24T02:56:16;8.63;;;5.70;;
54247;SDS011;40161;39.768;2.722;2023-08-24T02:58:42;8.60;;;5.72;;
54247;SDS011;40161;39.768;2.722;2023-08-24T03:01:08;7.97;;;5.68;;
54247;SDS011;40161;39.768;2.722;2023-08-24T03:03:34;7.65;;;5.40;;
54247;SDS011;40161;39.768;2.722;2023-08-24T03:06:02;7.60;;;5.40;;
54247;SDS011;40161;39.768;2.722;2023-08-24T03:08:29;7.03;;;5.70;;
54247;SDS011;40161;39.768;2.722;2023-08-24T03:10:56;9.30;;;5.60;;
54247;SDS011;40161;39.768;2.722;2023-08-24T03:13:22;7.05;;;5.90;;
54247;SDS011;40161;39.768;2.722;2023-08-24T03:15:48;8.18;;;5.68;;
54247;SDS011;40161;39.768;2.722;2023-08-24T03:18:15;6.75;;;5.57;;
54247;SDS011;40161;39.768;2.722;2023-08-24T03:20:41;7.80;;;5.97;;
54247;SDS011;40161;39.768;2.722;2023-08-24T03:23:07;9.02;;;5.85;;
54247;SDS011;40161;39.768;2.722;2023-08-24T03:25:36;6.97;;;5.47;;
54247;SDS011;40161;39.768;2.722;2023-08-24T03:28:03;7.43;;;5.53;;
54247;SDS011;40161;39.768;2.722;2023-08-24T03:30:30;6.88;;;5.32;;
54247;SDS011;40161;39.768;2.722;2023-08-24T03:32:55;7.10;;;4.82;;
54247;SDS011;40161;39.768;2.722;2023-08-24T03:35:21;5.90;;;4.72;;
54247;SDS011;40161;39.768;2.722;2023-08-24T03:37:47;6.28;;;4.88;;
54247;SDS011;40161;39.768;2.722;2023-08-24T03:40:12;7.38;;;5.10;;
54247;SDS011;40161;39.768;2.722;2023-08-24T03:42:38;6.15;;;4.53;;
54247;SDS011;40161;39.768;2.722;2023-08-24T03:45:04;6.15;;;5.28;;
54247;SDS011;40161;39.768;2.722;2023-08-24T03:47:31;6.47;;;4.75;;
54247;SDS011;40161;39.768;2.722;2023-08-24T03:49:56;7.32;;;5.30;;
54247;SDS011;40161;39.768;2.722;2023-08-24T03:52:22;7.43;;;5.25;;
54247;SDS011;40161;39.768;2.722;2023-08-24T03:54:47;7.88;;;5.03;;
54247;SDS011;40161;39.768;2.722;2023-08-24T03:57:13;8.57;;;4.82;;
54247;SDS011;40161;39.768;2.722;2023-08-24T03:59:39;8.38;;;5.28;;
54247;SDS011;40161;39.768;2.722;2023-08-24T04:02:04;7.03;;;4.88;;
54247;SDS011;40161;39.768;2.722;2023-08-24T04:04:31;7.00;;;5.07;;
54247;SDS011;40161;39.768;2.722;2023-08-24T04:06:56;6.82;;;4.78;;
54247;SDS011;40161;39.768;2.722;2023-08-24T04:09:22;7.28;;;5.15;;
54247;SDS011;40161;39.768;2.722;2023-08-24T04:11:47;5.60;;;4.57;;
54247;SDS011;40161;39.768;2.722;2023-08-24T04:14:13;6.90;;;5.78;;
54247;SDS011;40161;39.768;2.722;2023-08-24T04:16:39;7.57;;;4.93;;
54247;SDS011;40161;39.768;2.722;2023-08-24T04:19:04;6.68;;;5.13;;
54247;SDS011;40161;39.768;2.722;2023-08-24T04:21:30;6.93;;;4.88;;
54247;SDS011;40161;39.768;2.722;2023-08-24T04:23:56;6.15;;;4.70;;
54247;SDS011;40161;39.768;2.722;2023-08-24T04:26:21;7.88;;;4.90;;
54247;SDS011;40161;39.768;2.722;2023-08-24T04:28:47;8.85;;;5.40;;
54247;SDS011;40161;39.768;2.722;2023-08-24T04:31:12;6.30;;;5.05;;
54247;SDS011;40161;39.768;2.722;2023-08-24T04:33:38;7.70;;;5.57;;
54247;SDS011;40161;39.768;2.722;2023-08-24T04:36:03;6.03;;;5.03;;
54247;SDS011;40161;39.768;2.722;2023-08-24T04:38:29;6.95;;;4.80;;
54247;SDS011;40161;39.768;2.722;2023-08-24T04:40:55;8.77;;;4.85;;
54247;SDS011;40161;39.768;2.722;2023-08-24T04:43:22;6.55;;;4.68;;
54247;SDS011;40161;39.768;2.722;2023-08-24T04:45:48;6.95;;;4.90;;
54247;SDS011;40161;39.768;2.722;2023-08-24T04:48:17;7.00;;;4.88;;
54247;SDS011;40161;39.768;2.722;2023-08-24T04:50:43;6.65;;;4.72;;
54247;SDS011;40161;39.768;2.722;2023-08-24T04:53:12;7.22;;;4.60;;
54247;SDS011;40161;39.768;2.722;2023-08-24T04:55:42;6.07;;;4.80;;
54247;SDS011;40161;39.768;2.722;2023-08-24T04:58:08;8.38;;;4.72;;
54247;SDS011;40161;39.768;2.722;2023-08-24T05:00:34;6.45;;;4.88;;
54247;SDS011;40161;39.768;2.722;2023-08-24T05:03:01;6.65;;;4.38;;
54247;SDS011;40161;39.768;2.722;2023-08-24T05:05:29;8.15;;;4.68;;
54247;SDS011;40161;39.768;2.722;2023-08-24T05:07:56;6.18;;;4.70;;
54247;SDS011;40161;39.768;2.722;2023-08-24T05:10:22;8.27;;;4.65;;
54247;SDS011;40161;39.768;2.722;2023-08-24T05:12:48;7.18;;;4.85;;
54247;SDS011;40161;39.768;2.722;2023-08-24T05:15:13;7.00;;;4.90;;
54247;SDS011;40161;39.768;2.722;2023-08-24T05:17:42;5.72;;;4.32;;
54247;SDS011;40161;39.768;2.722;2023-08-24T05:20:08;7.70;;;5.13;;
54247;SDS011;40161;39.768;2.722;2023-08-24T05:22:35;10.13;;;4.95;;
54247;SDS011;40161;39.768;2.722;2023-08-24T05:25:01;7.13;;;4.47;;
54247;SDS011;40161;39.768;2.722;2023-08-24T05:27:27;7.63;;;5.22;;
54247;SDS011;40161;39.768;2.722;2023-08-24T05:29:53;7.93;;;5.25;;
54247;SDS011;40161;39.768;2.722;2023-08-24T05:32:18;8.45;;;5.32;;
54247;SDS011;40161;39.768;2.722;2023-08-24T05:34:45;5.72;;;4.38;;
54247;SDS011;40161;39.768;2.722;2023-08-24T05:37:11;8.10;;;5.07;;
54247;SDS011;40161;39.768;2.722;2023-08-24T05:39:36;8.80;;;4.72;;
54247;SDS011;40161;39.768;2.722;2023-08-24T05:42:02;6.90;;;4.50;;
54247;SDS011;40161;39.768;2.722;2023-08-24T05:44:28;7.63;;;4.53;;
54247;SDS011;40161;39.768;2.722;2023-08-24T05:46:54;6.38;;;4.38;;
54247;SDS011;40161;39.768;2.722;2023-08-24T05:49:19;6.15;;;4.90;;
54247;SDS011;40161;39.768;2.722;2023-08-24T05:51:45;7.53;;;4.60;;
54247;SDS011;40161;39.768;2.722;2023-08-24T05:54:10;7.57;;;4.78;;
54247;SDS011;40161;39.768;2.722;2023-08-24T05:56:36;9.95;;;4.93;;
54247;SDS011;40161;39.768;2.722;2023-08-24T05:59:01;9.43;;;4.53;;
54247;SDS011;40161;39.768;2.722;2023-08-24T06:01:27;7.65;;;4.53;;
54247;SDS011;40161;39.768;2.722;2023-08-24T06:03:53;5.82;;;4.20;;
54247;SDS011;40161;39.768;2.722;2023-08-24T06:06:19;9.77;;;4.68;;
54247;SDS011;40161;39.768;2.722;2023-08-24T06:08:44;6.60;;;4.30;;
54247;SDS011;40161;39.768;2.722;2023-08-24T06:11:10;6.82;;;4.43;;
54247;SDS011;40161;39.768;2.722;2023-08-24T06:13:35;7.53;;;5.05;;
54247;SDS011;40161;39.768;2.722;2023-08-24T06:16:01;6.40;;;4.45;;
54247;SDS011;40161;39.768;2.722;2023-08-24T06:18:27;7.32;;;4.80;;
54247;SDS011;40161;39.768;2.722;2023-08-24T06:20:53;6.68;;;4.97;;
54247;SDS011;40161;39.768;2.722;2023-08-24T06:23:18;9.75;;;5.28;;
54247;SDS011;40161;39.768;2.722;2023-08-24T06:25:44;6.90;;;4.75;;
54247;SDS011;40161;39.768;2.722;2023-08-24T06:28:11;7.53;;;4.95;;
54247;SDS011;40161;39.768;2.722;2023-08-24T06:30:40;8.18;;;5.00;;
54247;SDS011;40161;39.768;2.722;2023-08-24T06:33:07;11.38;;;5.30;;
54247;SDS011;40161;39.768;2.722;2023-08-24T06:35:33;10.25;;;4.85;;
54247;SDS011;40161;39.768;2.722;2023-08-24T06:38:00;8.57;;;4.65;;
54247;SDS011;40161;39.768;2.722;2023-08-24T06:40:26;6.28;;;4.93;;
54247;SDS011;40161;39.768;2.722;2023-08-24T06:42:51;7.20;;;4.90;;
54247;SDS011;40161;39.768;2.722;2023-08-24T06:45:17;7.53;;;5.25;;
54247;SDS011;40161;39.768;2.722;2023-08-24T06:47:43;7.78;;;4.57;;
54247;SDS011;40161;39.768;2.722;2023-08-24T06:50:09;6.55;;;4.78;;
54247;SDS011;40161;39.768;2.722;2023-08-24T06:52:35;7.80;;;4.75;;
54247;SDS011;40161;39.768;2.722;2023-08-24T06:55:01;9.35;;;5.35;;
54247;SDS011;40161;39.768;2.722;2023-08-24T06:57:27;5.97;;;4.57;;
54247;SDS011;40161;39.768;2.722;2023-08-24T06:59:53;6.72;;;4.75;;
54247;SDS011;40161;39.768;2.722;2023-08-24T07:02:18;6.82;;;5.00;;
54247;SDS011;40161;39.768;2.722;2023-08-24T07:04:44;9.05;;;4.70;;
54247;SDS011;40161;39.768;2.722;2023-08-24T07:07:10;7.38;;;4.95;;
54247;SDS011;40161;39.768;2.722;2023-08-24T07:09:35;8.23;;;5.25;;
54247;SDS011;40161;39.768;2.722;2023-08-24T07:12:04;6.03;;;4.75;;
54247;SDS011;40161;39.768;2.722;2023-08-24T07:14:32;9.37;;;5.07;;
54247;SDS011;40161;39.768;2.722;2023-08-24T07:16:58;16.85;;;5.22;;
54247;SDS011;40161;39.768;2.722;2023-08-24T07:19:24;11.05;;;5.30;;
54247;SDS011;40161;39.768;2.722;2023-08-24T07:21:50;22.63;;;5.82;;
54247;SDS011;40161;39.768;2.722;2023-08-24T07:24:16;10.02;;;5.15;;
54247;SDS011;40161;39.768;2.722;2023-08-24T07:26:44;8.25;;;4.95;;
54247;SDS011;40161;39.768;2.722;2023-08-24T07:29:10;7.55;;;4.35;;
54247;SDS011;40161;39.768;2.722;2023-08-24T07:31:36;7.00;;;4.25;;
54247;SDS011;40161;39.768;2.722;2023-08-24T07:34:02;10.45;;;4.70;;
54247;SDS011;40161;39.768;2.722;2023-08-24T07:36:28;15.52;;;5.97;;
54247;SDS011;40161;39.768;2.722;2023-08-24T07:38:55;14.60;;;4.82;;
54247;SDS011;40161;39.768;2.722;2023-08-24T07:41:21;5.38;;;4.30;;
54247;SDS011;40161;39.768;2.722;2023-08-24T07:43:46;7.53;;;4.03;;
54247;SDS011;40161;39.768;2.722;2023-08-24T07:46:12;79.45;;;9.90;;
54247;SDS011;40161;39.768;2.722;2023-08-24T07:48:38;28.40;;;6.15;;
54247;SDS011;40161;39.768;2.722;2023-08-24T07:51:03;9.25;;;4.55;;
54247;SDS011;40161;39.768;2.722;2023-08-24T07:53:29;6.82;;;4.22;;
54247;SDS011;40161;39.768;2.722;2023-08-24T07:55:54;7.35;;;4.22;;
54247;SDS011;40161;39.768;2.722;2023-08-24T07:58:22;6.68;;;4.47;;
54247;SDS011;40161;39.768;2.722;2023-08-24T08:00:51;5.88;;;4.20;;
54247;SDS011;40161;39.768;2.722;2023-08-24T08:03:18;7.25;;;4.20;;
54247;SDS011;40161;39.768;2.722;2023-08-24T08:05:44;7.80;;;4.30;;
54247;SDS011;40161;39.768;2.722;2023-08-24T08:08:10;16.08;;;5.72;;
54247;SDS011;40161;39.768;2.722;2023-08-24T08:10:36;8.15;;;4.25;;
54247;SDS011;40161;39.768;2.722;2023-08-24T08:13:01;7.75;;;4.28;;
54247;SDS011;40161;39.768;2.722;2023-08-24T08:15:27;10.02;;;4.63;;
54247;SDS011;40161;39.768;2.722;2023-08-24T08:17:52;6.32;;;4.30;;
54247;SDS011;40161;39.768;2.722;2023-08-24T08:20:18;6.22;;;4.40;;
54247;SDS011;40161;39.768;2.722;2023-08-24T08:22:43;7.05;;;4.30;;
54247;SDS011;40161;39.768;2.722;2023-08-24T08:25:09;6.47;;;3.85;;
54247;SDS011;40161;39.768;2.722;2023-08-24T08:27:37;5.00;;;3.50;;
54247;SDS011;40161;39.768;2.722;2023-08-24T08:30:03;7.43;;;4.00;;
54247;SDS011;40161;39.768;2.722;2023-08-24T08:32:30;5.90;;;3.90;;
54247;SDS011;40161;39.768;2.722;2023-08-24T08:34:56;9.60;;;4.30;;
54247;SDS011;40161;39.768;2.722;2023-08-24T08:37:25;7.88;;;4.47;;
54247;SDS011;40161;39.768;2.722;2023-08-24T08:39:50;6.25;;;3.92;;
54247;SDS011;40161;39.768;2.722;2023-08-24T08:42:16;6.15;;;3.97;;
54247;SDS011;40161;39.768;2.722;2023-08-24T08:44:43;5.65;;;3.45;;
54247;SDS011;40161;39.768;2.722;2023-08-24T08:47:10;7.05;;;3.90;;
54247;SDS011;40161;39.768;2.722;2023-08-24T08:49:37;8.55;;;3.58;;
54247;SDS011;40161;39.768;2.722;2023-08-24T08:52:05;6.25;;;3.67;;
54247;SDS011;40161;39.768;2.722;2023-08-24T08:54:31;7.00;;;3.95;;
54247;SDS011;40161;39.768;2.722;2023-08-24T08:57:00;6.00;;;3.92;;
54247;SDS011;40161;39.768;2.722;2023-08-24T08:59:29;6.13;;;3.78;;
54247;SDS011;40161;39.768;2.722;2023-08-24T09:02:00;6.55;;;3.90;;
54247;SDS011;40161;39.768;2.722;2023-08-24T09:04:27;6.30;;;4.20;;
54247;SDS011;40161;39.768;2.722;2023-08-24T09:06:55;7.75;;;3.67;;
54247;SDS011;40161;39.768;2.722;2023-08-24T09:09:26;5.85;;;3.80;;
54247;SDS011;40161;39.768;2.722;2023-08-24T09:11:52;6.60;;;3.60;;
54247;SDS011;40161;39.768;2.722;2023-08-24T09:14:18;5.65;;;3.55;;
54247;SDS011;40161;39.768;2.722;2023-08-24T09:16:44;5.82;;;3.75;;
54247;SDS011;40161;39.768;2.722;2023-08-24T09:19:12;6.80;;;3.72;;
54247;SDS011;40161;39.768;2.722;2023-08-24T09:21:38;5.50;;;3.25;;
54247;SDS011;40161;39.768;2.722;2023-08-24T09:24:06;5.70;;;3.20;;
54247;SDS011;40161;39.768;2.722;2023-08-24T09:26:33;5.13;;;3.28;;
54247;SDS011;40161;39.768;2.722;2023-08-24T09:29:10;6.18;;;3.65;;
54247;SDS011;40161;39.768;2.722;2023-08-24T09:31:39;6.53;;;3.25;;
54247;SDS011;40161;39.768;2.722;2023-08-24T09:34:06;6.35;;;3.30;;
54247;SDS011;40161;39.768;2.722;2023-08-24T09:36:32;6.05;;;3.30;;
54247;SDS011;40161;39.768;2.722;2023-08-24T09:38:59;5.82;;;3.35;;
54247;SDS011;40161;39.768;2.722;2023-08-24T09:41:43;7.13;;;3.13;;
54247;SDS011;40161;39.768;2.722;2023-08-24T09:44:10;6.85;;;3.00;;
54247;SDS011;40161;39.768;2.722;2023-08-24T09:46:36;5.43;;;3.17;;
54247;SDS011;40161;39.768;2.722;2023-08-24T09:49:06;9.10;;;3.40;;
54247;SDS011;40161;39.768;2.722;2023-08-24T09:51:36;7.07;;;3.17;;
54247;SDS011;40161;39.768;2.722;2023-08-24T09:54:04;6.53;;;3.40;;
54247;SDS011;40161;39.768;2.722;2023-08-24T09:56:38;5.35;;;3.30;;
54247;SDS011;40161;39.768;2.722;2023-08-24T09:59:13;6.15;;;3.05;;
54247;SDS011;40161;39.768;2.722;2023-08-24T10:01:46;5.70;;;3.40;;
54247;SDS011;40161;39.768;2.722;2023-08-24T10:04:22;7.30;;;3.60;;
54247;SDS011;40161;39.768;2.722;2023-08-24T10:06:49;6.68;;;3.30;;
54247;SDS011;40161;39.768;2.722;2023-08-24T10:09:21;7.18;;;3.20;;
54247;SDS011;40161;39.768;2.722;2023-08-24T10:11:52;7.15;;;2.88;;
54247;SDS011;40161;39.768;2.722;2023-08-24T10:16:53;4.78;;;2.97;;
54247;SDS011;40161;39.768;2.722;2023-08-24T10:19:20;5.45;;;3.40;;
54247;SDS011;40161;39.768;2.722;2023-08-24T10:21:47;7.32;;;2.90;;
54247;SDS011;40161;39.768;2.722;2023-08-24T10:24:15;5.60;;;3.13;;
54247;SDS011;40161;39.768;2.722;2023-08-24T10:26:41;5.35;;;3.03;;
54247;SDS011;40161;39.768;2.722;2023-08-24T10:29:08;5.53;;;3.17;;
54247;SDS011;40161;39.768;2.722;2023-08-24T10:31:35;7.38;;;3.28;;
54247;SDS011;40161;39.768;2.722;2023-08-24T10:34:01;7.60;;;3.13;;
54247;SDS011;40161;39.768;2.722;2023-08-24T10:36:28;6.32;;;3.30;;
54247;SDS011;40161;39.768;2.722;2023-08-24T10:38:57;7.85;;;3.22;;
54247;SDS011;40161;39.768;2.722;2023-08-24T10:41:30;6.97;;;3.30;;
54247;SDS011;40161;39.768;2.722;2023-08-24T10:44:14;6.78;;;3.28;;
54247;SDS011;40161;39.768;2.722;2023-08-24T10:47:05;7.03;;;3.30;;
54247;SDS011;40161;39.768;2.722;2023-08-24T10:49:32;7.53;;;3.47;;
54247;SDS011;40161;39.768;2.722;2023-08-24T10:51:58;5.75;;;3.50;;
54247;SDS011;40161;39.768;2.722;2023-08-24T10:54:42;7.82;;;3.60;;
54247;SDS011;40161;39.768;2.722;2023-08-24T10:57:17;7.15;;;3.67;;
54247;SDS011;40161;39.768;2.722;2023-08-24T11:02:31;5.75;;;3.40;;
54247;SDS011;40161;39.768;2.722;2023-08-24T11:05:10;6.47;;;3.63;;
54247;SDS011;40161;39.768;2.722;2023-08-24T11:10:25;4.68;;;3.42;;
54247;SDS011;40161;39.768;2.722;2023-08-24T11:15:48;7.80;;;3.70;;
54247;SDS011;40161;39.768;2.722;2023-08-24T11:18:20;5.70;;;3.75;;
54247;SDS011;40161;39.768;2.722;2023-08-24T11:20:54;6.78;;;3.85;;
54247;SDS011;40161;39.768;2.722;2023-08-24T11:23:27;6.70;;;4.25;;
54247;SDS011;40161;39.768;2.722;2023-08-24T11:25:54;5.65;;;4.00;;
54247;SDS011;40161;39.768;2.722;2023-08-24T11:28:24;6.40;;;3.95;;
54247;SDS011;40161;39.768;2.722;2023-08-24T11:30:54;6.43;;;4.05;;
54247;SDS011;40161;39.768;2.722;2023-08-24T11:33:31;5.93;;;4.13;;
54247;SDS011;40161;39.768;2.722;2023-08-24T11:35:58;8.10;;;4.38;;
54247;SDS011;40161;39.768;2.722;2023-08-24T11:38:25;6.03;;;3.70;;
54247;SDS011;40161;39.768;2.722;2023-08-24T11:41:00;6.68;;;4.32;;
54247;SDS011;40161;39.768;2.722;2023-08-24T11:43:25;7.13;;;3.78;;
54247;SDS011;40161;39.768;2.722;2023-08-24T11:45:54;7.60;;;4.03;;
54247;SDS011;40161;39.768;2.722;2023-08-24T11:48:24;7.75;;;4.03;;
54247;SDS011;40161;39.768;2.722;2023-08-24T11:50:51;7.85;;;4.22;;
54247;SDS011;40161;39.768;2.722;2023-08-24T11:53:19;6.43;;;3.92;;
54247;SDS011;40161;39.768;2.722;2023-08-24T11:55:44;8.00;;;5.05;;
54247;SDS011;40161;39.768;2.722;2023-08-24T11:58:13;7.20;;;4.22;;
54247;SDS011;40161;39.768;2.722;2023-08-24T12:00:41;7.22;;;3.90;;
54247;SDS011;40161;39.768;2.722;2023-08-24T12:03:07;6.43;;;4.13;;
54247;SDS011;40161;39.768;2.722;2023-08-24T12:05:33;6.47;;;4.25;;
54247;SDS011;40161;39.768;2.722;2023-08-24T12:07:59;6.60;;;4.20;;
54247;SDS011;40161;39.768;2.722;2023-08-24T12:10:24;6.78;;;4.18;;
54247;SDS011;40161;39.768;2.722;2023-08-24T12:13:00;6.65;;;3.97;;
54247;SDS011;40161;39.768;2.722;2023-08-24T12:15:27;5.75;;;4.65;;
54247;SDS011;40161;39.768;2.722;2023-08-24T12:17:53;6.78;;;4.25;;
54247;SDS011;40161;39.768;2.722;2023-08-24T12:20:20;6.47;;;4.13;;
54247;SDS011;40161;39.768;2.722;2023-08-24T12:22:54;7.28;;;4.05;;
54247;SDS011;40161;39.768;2.722;2023-08-24T12:25:23;7.85;;;4.50;;
54247;SDS011;40161;39.768;2.722;2023-08-24T12:27:50;5.75;;;4.18;;
54247;SDS011;40161;39.768;2.722;2023-08-24T12:30:42;7.03;;;4.30;;
54247;SDS011;40161;39.768;2.722;2023-08-24T12:33:09;6.20;;;4.20;;
54247;SDS011;40161;39.768;2.722;2023-08-24T12:35:34;8.35;;;4.10;;
54247;SDS011;40161;39.768;2.722;2023-08-24T12:38:00;7.22;;;4.43;;
54247;SDS011;40161;39.768;2.722;2023-08-24T12:40:26;8.18;;;4.90;;
54247;SDS011;40161;39.768;2.722;2023-08-24T12:42:51;6.57;;;4.40;;
54247;SDS011;40161;39.768;2.722;2023-08-24T12:45:17;8.27;;;4.40;;
54247;SDS011;40161;39.768;2.722;2023-08-24T12:47:42;7.68;;;3.95;;
54247;SDS011;40161;39.768;2.722;2023-08-24T12:50:08;5.93;;;4.25;;
54247;SDS011;40161;39.768;2.722;2023-08-24T12:52:34;6.38;;;4.05;;
54247;SDS011;40161;39.768;2.722;2023-08-24T12:54:59;8.13;;;4.43;;
54247;SDS011;40161;39.768;2.722;2023-08-24T12:57:25;8.20;;;4.75;;
54247;SDS011;40161;39.768;2.722;2023-08-24T12:59:50;8.18;;;4.70;;
54247;SDS011;40161;39.768;2.722;2023-08-24T13:02:17;5.38;;;4.20;;
54247;SDS011;40161;39.768;2.722;2023-08-24T13:04:42;6.57;;;4.13;;
54247;SDS011;40161;39.768;2.722;2023-08-24T13:07:08;8.73;;;4.68;;
54247;SDS011;40161;39.768;2.722;2023-08-24T13:09:34;6.07;;;4.28;;
54247;SDS011;40161;39.768;2.722;2023-08-24T13:12:00;7.38;;;4.25;;
54247;SDS011;40161;39.768;2.722;2023-08-24T13:14:25;7.15;;;4.60;;
54247;SDS011;40161;39.768;2.722;2023-08-24T13:16:51;8.35;;;4.10;;
54247;SDS011;40161;39.768;2.722;2023-08-24T13:19:16;7.32;;;4.15;;
54247;SDS011;40161;39.768;2.722;2023-08-24T13:21:42;5.85;;;4.13;;
54247;SDS011;40161;39.768;2.722;2023-08-24T13:24:07;6.20;;;3.83;;
54247;SDS011;40161;39.768;2.722;2023-08-24T13:26:33;4.97;;;3.60;;
54247;SDS011;40161;39.768;2.722;2023-08-24T13:28:58;5.88;;;3.80;;
54247;SDS011;40161;39.768;2.722;2023-08-24T13:31:26;6.63;;;4.40;;
54247;SDS011;40161;39.768;2.722;2023-08-24T13:33:51;6.40;;;3.88;;
54247;SDS011;40161;39.768;2.722;2023-08-24T13:36:17;6.35;;;4.10;;
54247;SDS011;40161;39.768;2.722;2023-08-24T13:38:43;6.15;;;4.28;;
54247;SDS011;40161;39.768;2.722;2023-08-24T13:41:09;5.45;;;4.30;;
54247;SDS011;40161;39.768;2.722;2023-08-24T13:43:35;7.03;;;4.13;;
54247;SDS011;40161;39.768;2.722;2023-08-24T13:46:00;6.28;;;4.35;;
54247;SDS011;40161;39.768;2.722;2023-08-24T13:48:26;6.38;;;3.97;;
54247;SDS011;40161;39.768;2.722;2023-08-24T13:50:52;7.05;;;4.28;;
54247;SDS011;40161;39.768;2.722;2023-08-24T13:53:18;5.80;;;3.72;;
54247;SDS011;40161;39.768;2.722;2023-08-24T13:55:44;7.65;;;4.05;;
54247;SDS011;40161;39.768;2.722;2023-08-24T13:58:10;7.72;;;4.28;;
54247;SDS011;40161;39.768;2.722;2023-08-24T14:00:36;7.43;;;4.03;;
54247;SDS011;40161;39.768;2.722;2023-08-24T14:03:02;7.60;;;4.50;;
54247;SDS011;40161;39.768;2.722;2023-08-24T14:05:28;6.43;;;4.03;;
54247;SDS011;40161;39.768;2.722;2023-08-24T14:07:54;7.22;;;3.65;;
54247;SDS011;40161;39.768;2.722;2023-08-24T14:10:19;6.63;;;4.30;;
54247;SDS011;40161;39.768;2.722;2023-08-24T14:12:45;7.38;;;4.40;;
54247;SDS011;40161;39.768;2.722;2023-08-24T14:15:11;7.13;;;4.20;;
54247;SDS011;40161;39.768;2.722;2023-08-24T14:17:36;5.80;;;4.10;;
54247;SDS011;40161;39.768;2.722;2023-08-24T14:20:02;6.75;;;4.07;;
54247;SDS011;40161;39.768;2.722;2023-08-24T14:22:29;6.18;;;3.88;;
54247;SDS011;40161;39.768;2.722;2023-08-24T14:24:55;5.70;;;4.10;;
54247;SDS011;40161;39.768;2.722;2023-08-24T14:27:20;5.13;;;3.80;;
54247;SDS011;40161;39.768;2.722;2023-08-24T14:29:46;5.43;;;4.03;;
54247;SDS011;40161;39.768;2.722;2023-08-24T14:32:11;6.57;;;3.80;;
54247;SDS011;40161;39.768;2.722;2023-08-24T14:34:37;7.25;;;4.22;;
54247;SDS011;40161;39.768;2.722;2023-08-24T14:37:03;7.75;;;3.88;;
54247;SDS011;40161;39.768;2.722;2023-08-24T14:39:28;5.40;;;3.45;;
54247;SDS011;40161;39.768;2.722;2023-08-24T14:41:54;6.53;;;3.90;;
54247;SDS011;40161;39.768;2.722;2023-08-24T14:44:20;5.70;;;4.00;;
54247;SDS011;40161;39.768;2.722;2023-08-24T14:46:45;5.07;;;3.58;;
54247;SDS011;40161;39.768;2.722;2023-08-24T14:49:11;6.60;;;3.80;;
54247;SDS011;40161;39.768;2.722;2023-08-24T14:51:37;7.32;;;3.80;;
54247;SDS011;40161;39.768;2.722;2023-08-24T14:54:05;6.07;;;3.80;;
54247;SDS011;40161;39.768;2.722;2023-08-24T14:56:32;6.50;;;3.80;;
54247;SDS011;40161;39.768;2.722;2023-08-24T14:58:57;6.65;;;4.03;;
54247;SDS011;40161;39.768;2.722;2023-08-24T15:01:23;6.25;;;4.13;;
54247;SDS011;40161;39.768;2.722;2023-08-24T15:03:49;5.88;;;4.05;;
54247;SDS011;40161;39.768;2.722;2023-08-24T15:06:15;5.93;;;3.72;;